createdAt,value
2017-05-27T00:00:32.870Z,15.30
2017-05-27T00:03:00.675Z,15.30
2017-05-27T00:05:28.419Z,15.20
2017-05-27T00:07:56.170Z,15.20
2017-05-27T00:10:23.911Z,15.10
2017-05-27T00:12:51.695Z,15.20
2017-05-27T00:15:19.425Z,15.10
2017-05-27T00:17:47.215Z,15.20
2017-05-27T00:20:14.952Z,15.10
2017-05-27T00:22:42.705Z,15.00
2017-05-27T00:25:10.469Z,15.00
2017-05-27T00:27:38.208Z,15.00
2017-05-27T00:30:05.960Z,15.10
2017-05-27T00:32:33.690Z,14.90
2017-05-27T00:35:01.494Z,14.80
2017-05-27T00:37:29.235Z,14.80
2017-05-27T00:39:56.985Z,14.90
2017-05-27T00:42:24.739Z,14.80
2017-05-27T00:44:52.541Z,14.70
2017-05-27T00:47:20.282Z,14.50
2017-05-27T00:49:48.104Z,14.50
2017-05-27T00:52:15.837Z,14.40
2017-05-27T00:54:43.591Z,14.10
2017-05-27T00:57:11.360Z,14.10
2017-05-27T00:59:39.085Z,14.00
2017-05-27T01:02:06.840Z,14.10
2017-05-27T01:04:34.577Z,14.30
2017-05-27T01:07:02.354Z,14.50
2017-05-27T01:09:30.103Z,14.40
2017-05-27T01:11:57.839Z,14.40
2017-05-27T01:14:25.599Z,14.40
2017-05-27T01:16:53.399Z,14.30
2017-05-27T01:19:21.159Z,14.20
2017-05-27T01:21:48.892Z,14.00
2017-05-27T01:24:16.684Z,13.90
2017-05-27T01:26:44.410Z,13.90
2017-05-27T01:29:12.175Z,13.80
2017-05-27T01:31:39.925Z,13.70
2017-05-27T01:34:07.679Z,13.70
2017-05-27T01:36:35.407Z,13.80
2017-05-27T01:39:03.213Z,13.80
2017-05-27T01:41:31.567Z,14.00
2017-05-27T01:43:59.321Z,13.90
2017-05-27T01:46:27.086Z,13.70
2017-05-27T01:48:54.830Z,13.50
2017-05-27T01:51:22.580Z,13.50
2017-05-27T01:53:50.308Z,13.50
2017-05-27T01:56:18.085Z,13.50
2017-05-27T01:58:45.846Z,13.30
2017-05-27T02:01:13.597Z,13.50
2017-05-27T02:03:41.385Z,13.40
2017-05-27T02:06:09.128Z,13.30
2017-05-27T02:08:36.900Z,13.10
2017-05-27T02:11:04.651Z,13.40
2017-05-27T02:13:32.394Z,13.50
2017-05-27T02:16:00.143Z,13.50
2017-05-27T02:18:27.882Z,13.50
2017-05-27T02:20:55.669Z,13.50
2017-05-27T02:23:23.404Z,13.40
2017-05-27T02:25:51.502Z,13.40
2017-05-27T02:28:19.234Z,13.50
2017-05-27T02:30:47.103Z,13.30
2017-05-27T02:33:14.856Z,13.30
2017-05-27T02:35:42.584Z,13.30
2017-05-27T02:38:10.375Z,13.30
2017-05-27T02:40:38.100Z,13.50
2017-05-27T02:43:05.832Z,13.40
2017-05-27T02:45:33.596Z,13.50
2017-05-27T02:48:01.324Z,13.40
2017-05-27T02:50:29.087Z,13.20
2017-05-27T02:52:56.825Z,13.20
2017-05-27T02:55:24.591Z,13.00
2017-05-27T02:57:52.334Z,12.90
2017-05-27T03:00:20.066Z,12.70
2017-05-27T03:02:47.828Z,12.80
2017-05-27T03:05:15.574Z,12.90
2017-05-27T03:07:43.356Z,12.90
2017-05-27T03:10:11.104Z,13.10
2017-05-27T03:12:38.848Z,13.20
2017-05-27T03:15:06.616Z,13.20
2017-05-27T03:17:34.359Z,13.10
2017-05-27T03:20:02.129Z,13.00
2017-05-27T03:22:29.862Z,13.00
2017-05-27T03:24:57.640Z,13.00
2017-05-27T03:27:25.373Z,12.90
2017-05-27T03:29:53.116Z,13.00
2017-05-27T03:32:20.889Z,13.10
2017-05-27T03:34:48.623Z,13.20
2017-05-27T03:37:16.380Z,13.30
2017-05-27T03:39:44.114Z,13.30
2017-05-27T03:42:11.884Z,13.20
2017-05-27T03:44:39.619Z,13.40
2017-05-27T03:47:07.361Z,13.40
2017-05-27T03:49:35.129Z,13.40
2017-05-27T03:52:02.877Z,13.50
2017-05-27T03:54:30.644Z,13.70
2017-05-27T03:56:58.380Z,13.60
2017-05-27T03:59:26.163Z,13.70
2017-05-27T04:01:53.896Z,13.60
2017-05-27T04:04:21.628Z,13.60
2017-05-27T04:06:49.384Z,13.70
2017-05-27T04:09:17.122Z,13.80
2017-05-27T04:11:44.884Z,13.90
2017-05-27T04:14:12.613Z,14.00
2017-05-27T04:16:40.374Z,14.20
2017-05-27T04:19:08.118Z,14.20
2017-05-27T04:21:35.892Z,14.40
2017-05-27T04:24:03.629Z,14.30
2017-05-27T04:26:31.359Z,14.40
2017-05-27T04:28:59.109Z,14.60
2017-05-27T04:31:26.846Z,14.60
2017-05-27T04:33:54.611Z,14.80
2017-05-27T04:36:22.340Z,14.80
2017-05-27T04:38:50.140Z,14.90
2017-05-27T04:41:17.872Z,15.10
2017-05-27T04:43:45.643Z,15.20
2017-05-27T04:46:13.398Z,15.30
2017-05-27T04:48:41.146Z,15.40
2017-05-27T04:51:08.915Z,15.40
2017-05-27T04:53:36.652Z,15.60
2017-05-27T04:56:04.418Z,15.70
2017-05-27T04:58:32.155Z,15.80
2017-05-27T05:00:59.917Z,15.90
2017-05-27T05:03:27.656Z,15.90
2017-05-27T05:05:55.405Z,16.10
2017-05-27T05:08:23.128Z,16.20
2017-05-27T05:10:50.920Z,16.30
2017-05-27T05:13:18.665Z,16.40
2017-05-27T05:15:46.420Z,16.50
2017-05-27T05:18:14.184Z,16.60
2017-05-27T05:20:41.912Z,16.70
2017-05-27T05:23:09.674Z,16.80
2017-05-27T05:25:37.409Z,16.90
2017-05-27T05:28:05.731Z,16.90
2017-05-27T05:30:33.474Z,17.10
2017-05-27T05:33:01.205Z,17.20
2017-05-27T05:35:29.104Z,17.20
2017-05-27T05:37:56.837Z,17.30
2017-05-27T05:40:24.576Z,17.40
2017-05-27T05:42:52.336Z,17.50
2017-05-27T05:45:20.116Z,17.50
2017-05-27T05:47:47.875Z,17.60
2017-05-27T05:50:15.612Z,17.70
2017-05-27T05:52:43.378Z,17.80
2017-05-27T05:55:11.113Z,17.90
2017-05-27T05:57:38.129Z,17.80
2017-05-27T06:00:05.884Z,18.00
2017-05-27T06:02:33.625Z,18.00
2017-05-27T06:05:01.379Z,18.10
2017-05-27T06:07:29.118Z,18.20
2017-05-27T06:09:56.872Z,18.30
2017-05-27T06:12:24.641Z,18.40
2017-05-27T06:14:52.404Z,18.40
2017-05-27T06:17:20.132Z,18.50
2017-05-27T06:19:47.906Z,18.50
2017-05-27T06:22:15.644Z,18.50
2017-05-27T06:24:43.376Z,18.60
2017-05-27T06:27:11.132Z,18.70
2017-05-27T06:29:38.862Z,18.80
2017-05-27T06:32:06.729Z,18.90
2017-05-27T06:34:34.456Z,19.00
2017-05-27T06:37:02.185Z,19.10
2017-05-27T06:39:29.953Z,19.20
2017-05-27T06:41:58.008Z,19.30
2017-05-27T06:44:25.781Z,19.40
2017-05-27T06:46:53.516Z,19.60
2017-05-27T06:49:21.276Z,19.60
2017-05-27T06:51:49.029Z,19.60
2017-05-27T06:54:16.797Z,19.60
2017-05-27T06:56:44.568Z,19.70
2017-05-27T06:59:12.316Z,19.70
2017-05-27T07:01:40.088Z,19.80
2017-05-27T07:04:07.820Z,19.90
2017-05-27T07:06:36.125Z,19.90
2017-05-27T07:09:03.873Z,20.10
2017-05-27T07:11:31.629Z,20.20
2017-05-27T07:13:59.368Z,20.30
2017-05-27T07:16:27.530Z,20.40
2017-05-27T07:18:55.272Z,20.60
2017-05-27T07:21:23.016Z,20.60
2017-05-27T07:23:50.777Z,20.60
2017-05-27T07:26:18.512Z,20.70
2017-05-27T07:28:46.305Z,20.80
2017-05-27T07:31:14.040Z,20.90
2017-05-27T07:33:41.823Z,20.90
2017-05-27T07:36:09.548Z,21.00
2017-05-27T07:38:37.284Z,21.20
2017-05-27T07:41:05.096Z,21.20
2017-05-27T07:43:32.828Z,21.30
2017-05-27T07:46:01.315Z,21.30
2017-05-27T07:48:29.041Z,21.40
2017-05-27T07:50:56.844Z,21.40
2017-05-27T07:53:25.024Z,21.50
2017-05-27T07:55:52.749Z,21.60
2017-05-27T07:58:20.485Z,21.60
2017-05-27T08:00:48.599Z,21.70
2017-05-27T08:03:16.380Z,21.70
2017-05-27T08:05:44.120Z,21.70
2017-05-27T08:08:11.877Z,21.90
2017-05-27T08:10:39.679Z,22.00
2017-05-27T08:13:07.434Z,22.00
2017-05-27T08:15:35.176Z,22.10
2017-05-27T08:18:02.937Z,22.10
2017-05-27T08:20:30.676Z,22.00
2017-05-27T08:22:58.411Z,22.00
2017-05-27T08:25:26.198Z,22.00
2017-05-27T08:27:54.098Z,22.10
2017-05-27T08:30:21.853Z,22.20
2017-05-27T08:32:49.636Z,22.30
2017-05-27T08:35:17.391Z,22.30
2017-05-27T08:37:45.130Z,22.30
2017-05-27T08:40:12.905Z,22.40
2017-05-27T08:42:40.653Z,22.50
2017-05-27T08:45:08.384Z,22.50
2017-05-27T08:47:36.141Z,22.60
2017-05-27T08:50:03.967Z,22.60
2017-05-27T08:52:31.731Z,22.70
2017-05-27T08:54:59.455Z,22.70
2017-05-27T08:57:27.234Z,22.70
2017-05-27T08:59:55.002Z,22.70
2017-05-27T09:02:22.732Z,22.90
2017-05-27T09:04:50.490Z,22.90
2017-05-27T09:07:18.238Z,23.00
2017-05-27T09:09:45.984Z,23.20
2017-05-27T09:12:13.722Z,23.20
2017-05-27T09:14:41.492Z,23.10
2017-05-27T09:17:09.220Z,23.30
2017-05-27T09:19:36.952Z,23.40
2017-05-27T09:22:04.720Z,23.40
2017-05-27T09:24:32.451Z,23.40
2017-05-27T09:27:00.206Z,23.50
2017-05-27T09:29:27.937Z,23.60
2017-05-27T09:31:55.713Z,23.40
2017-05-27T09:34:23.477Z,23.50
2017-05-27T09:36:51.201Z,23.60
2017-05-27T09:39:18.989Z,23.80
2017-05-27T09:41:46.720Z,23.80
2017-05-27T09:44:14.490Z,23.80
2017-05-27T09:46:42.250Z,23.80
2017-05-27T09:49:09.986Z,23.80
2017-05-27T09:51:37.794Z,23.80
2017-05-27T09:54:05.517Z,23.80
2017-05-27T09:56:33.286Z,23.80
2017-05-27T09:59:01.033Z,23.90
2017-05-27T10:01:28.808Z,24.00
2017-05-27T10:03:56.613Z,24.00
2017-05-27T10:06:24.464Z,24.20
2017-05-27T10:08:52.716Z,24.10
2017-05-27T10:11:20.445Z,24.20
2017-05-27T10:13:48.676Z,24.20
2017-05-27T10:16:16.407Z,24.30
2017-05-27T10:18:44.166Z,24.50
2017-05-27T10:21:11.904Z,24.70
2017-05-27T10:23:39.673Z,24.60
2017-05-27T10:26:07.420Z,24.60
2017-05-27T10:28:35.158Z,24.80
2017-05-27T10:31:03.150Z,24.90
2017-05-27T10:33:30.876Z,25.00
2017-05-27T10:35:58.617Z,24.90
2017-05-27T10:38:26.376Z,24.90
2017-05-27T10:40:54.176Z,24.80
2017-05-27T10:43:21.911Z,24.70
2017-05-27T10:45:49.642Z,24.80
2017-05-27T10:48:17.395Z,24.90
2017-05-27T10:50:45.156Z,24.90
2017-05-27T10:53:12.988Z,25.00
2017-05-27T10:55:40.716Z,25.10
2017-05-27T10:58:08.485Z,25.10
2017-05-27T11:00:36.212Z,25.20
2017-05-27T11:03:03.981Z,25.30
2017-05-27T11:05:31.820Z,25.30
2017-05-27T11:07:59.549Z,25.40
2017-05-27T11:10:27.309Z,25.40
2017-05-27T11:12:55.111Z,25.40
2017-05-27T11:15:22.861Z,25.10
2017-05-27T11:17:50.588Z,25.20
2017-05-27T11:20:18.360Z,25.10
2017-05-27T11:22:46.087Z,25.10
2017-05-27T11:25:13.812Z,25.00
2017-05-27T11:27:41.560Z,25.10
2017-05-27T11:30:09.292Z,25.10
2017-05-27T11:32:37.052Z,25.20
2017-05-27T11:35:04.778Z,25.10
2017-05-27T11:37:32.548Z,25.10
2017-05-27T11:40:00.281Z,25.20
2017-05-27T11:42:28.010Z,25.20
2017-05-27T11:44:55.771Z,25.30
2017-05-27T11:47:23.500Z,25.50
2017-05-27T11:49:51.275Z,25.50
2017-05-27T11:52:18.997Z,25.40
2017-05-27T11:54:46.740Z,25.40
2017-05-27T11:57:14.492Z,25.40
2017-05-27T11:59:42.232Z,25.60
2017-05-27T12:02:10.404Z,25.70
2017-05-27T12:04:38.142Z,25.90
2017-05-27T12:07:05.870Z,26.00
2017-05-27T12:09:33.642Z,25.90
2017-05-27T12:12:01.400Z,25.90
2017-05-27T12:14:29.151Z,25.80
2017-05-27T12:16:56.884Z,25.70
2017-05-27T12:19:24.640Z,25.80
2017-05-27T12:21:52.360Z,26.00
2017-05-27T12:24:20.123Z,26.00
2017-05-27T12:26:47.852Z,26.20
2017-05-27T12:29:15.580Z,26.50
2017-05-27T12:31:43.339Z,26.80
2017-05-27T12:34:11.068Z,26.70
2017-05-27T12:36:38.832Z,26.60
2017-05-27T12:39:06.556Z,26.30
2017-05-27T12:41:34.288Z,26.20
2017-05-27T12:44:02.063Z,26.40
2017-05-27T12:46:29.784Z,26.50
2017-05-27T12:48:57.509Z,26.50
2017-05-27T12:51:25.264Z,26.90
2017-05-27T12:53:52.992Z,26.90
2017-05-27T12:56:20.748Z,26.60
2017-05-27T12:58:48.480Z,26.60
2017-05-27T13:01:16.269Z,26.80
2017-05-27T13:03:44.028Z,26.90
2017-05-27T13:06:11.769Z,27.00
2017-05-27T13:08:39.519Z,27.20
2017-05-27T13:11:07.360Z,27.00
2017-05-27T13:13:35.149Z,27.10
2017-05-27T13:16:02.889Z,27.20
2017-05-27T13:18:30.616Z,27.40
2017-05-27T13:20:58.380Z,27.40
2017-05-27T13:23:26.108Z,28.30
2017-05-27T13:25:53.876Z,31.70
2017-05-27T13:28:21.619Z,33.60
2017-05-27T13:30:49.366Z,34.40
2017-05-27T13:33:17.144Z,35.60
2017-05-27T13:35:44.868Z,36.20
2017-05-27T13:38:12.636Z,36.40
2017-05-27T13:40:40.371Z,36.30
2017-05-27T13:43:08.141Z,37.60
2017-05-27T13:45:35.868Z,38.30
2017-05-27T13:48:03.601Z,38.80
2017-05-27T13:50:31.355Z,39.60
2017-05-27T13:52:59.092Z,39.40
2017-05-27T13:55:26.850Z,39.00
2017-05-27T13:57:54.572Z,39.40
2017-05-27T14:00:22.348Z,39.60
2017-05-27T14:02:50.256Z,40.10
2017-05-27T14:05:17.984Z,41.00
2017-05-27T14:07:45.732Z,41.30
2017-05-27T14:10:13.475Z,40.70
2017-05-27T14:12:41.353Z,40.80
2017-05-27T14:15:09.081Z,40.90
2017-05-27T14:17:36.828Z,41.40
2017-05-27T14:20:04.604Z,41.50
2017-05-27T14:22:32.336Z,42.50
2017-05-27T14:25:00.084Z,42.80
2017-05-27T14:27:27.812Z,42.50
2017-05-27T14:29:55.580Z,42.80
2017-05-27T14:32:23.421Z,42.40
2017-05-27T14:34:51.196Z,42.30
2017-05-27T14:37:18.994Z,42.30
2017-05-27T14:39:46.725Z,42.80
2017-05-27T14:42:14.488Z,42.30
2017-05-27T14:44:42.264Z,41.70
2017-05-27T14:47:10.046Z,42.20
2017-05-27T14:49:37.835Z,41.80
2017-05-27T14:52:05.560Z,42.70
2017-05-27T14:54:33.336Z,41.80
2017-05-27T14:57:01.069Z,42.40
2017-05-27T14:59:28.835Z,41.90
2017-05-27T15:01:56.568Z,41.60
2017-05-27T15:04:24.356Z,41.80
2017-05-27T15:06:52.132Z,41.80
2017-05-27T15:09:20.231Z,41.80
2017-05-27T15:11:48.024Z,41.90
2017-05-27T15:14:15.784Z,41.70
2017-05-27T15:16:43.549Z,42.20
2017-05-27T15:19:11.297Z,42.90
2017-05-27T15:21:39.068Z,42.50
2017-05-27T15:24:06.828Z,41.60
2017-05-27T15:26:34.553Z,42.20
2017-05-27T15:29:02.308Z,42.40
2017-05-27T15:31:30.023Z,42.40
2017-05-27T15:33:57.834Z,41.40
2017-05-27T15:36:25.604Z,41.40
2017-05-27T15:38:54.043Z,41.00
2017-05-27T15:41:21.784Z,40.80
2017-05-27T15:43:49.521Z,40.60
2017-05-27T15:46:17.279Z,40.50
2017-05-27T15:48:45.009Z,40.80
2017-05-27T15:51:12.804Z,40.80
2017-05-27T15:53:40.556Z,41.40
2017-05-27T15:56:09.084Z,41.50
2017-05-27T15:58:36.841Z,41.90
2017-05-27T16:01:03.815Z,41.90
2017-05-27T16:03:31.571Z,40.20
2017-05-27T16:05:58.602Z,40.20
2017-05-27T16:08:26.365Z,39.70
2017-05-27T16:10:54.108Z,40.20
2017-05-27T16:13:21.849Z,40.90
2017-05-27T16:15:49.596Z,41.40
2017-05-27T16:18:17.330Z,41.00
2017-05-27T16:20:45.099Z,40.30
2017-05-27T16:23:12.833Z,39.60
2017-05-27T16:25:40.576Z,40.20
2017-05-27T16:28:08.333Z,40.10
2017-05-27T16:30:36.080Z,39.50
2017-05-27T16:33:04.161Z,39.10
2017-05-27T16:35:31.888Z,39.10
2017-05-27T16:37:58.878Z,39.10
2017-05-27T16:40:26.620Z,38.90
2017-05-27T16:42:54.388Z,39.10
2017-05-27T16:45:22.119Z,38.50
2017-05-27T16:47:49.860Z,38.10
2017-05-27T16:50:17.612Z,37.60
2017-05-27T16:52:45.361Z,37.50
2017-05-27T16:55:13.108Z,37.60
2017-05-27T16:57:40.852Z,37.80
2017-05-27T17:00:09.628Z,37.70
2017-05-27T17:02:37.363Z,37.40
2017-05-27T17:05:05.096Z,37.00
2017-05-27T17:07:32.847Z,36.90
2017-05-27T17:10:00.580Z,37.10
2017-05-27T17:12:28.403Z,36.90
2017-05-27T17:14:56.150Z,36.50
2017-05-27T17:17:23.916Z,35.50
2017-05-27T17:19:51.684Z,33.10
2017-05-27T17:22:19.452Z,33.70
2017-05-27T17:24:47.185Z,34.30
2017-05-27T17:27:14.935Z,34.20
2017-05-27T17:29:42.696Z,32.20
2017-05-27T17:32:09.669Z,32.20
2017-05-27T17:34:37.440Z,28.70
2017-05-27T17:37:05.164Z,27.70
2017-05-27T17:39:32.921Z,27.00
2017-05-27T17:42:00.663Z,26.50
2017-05-27T17:44:28.493Z,26.20
2017-05-27T17:46:56.220Z,25.90
2017-05-27T17:49:23.969Z,25.60
2017-05-27T17:51:51.733Z,25.40
2017-05-27T17:54:19.472Z,25.30
2017-05-27T17:56:47.217Z,25.10
2017-05-27T17:59:14.952Z,25.10
2017-05-27T18:01:42.749Z,25.00
2017-05-27T18:04:10.516Z,24.80
2017-05-27T18:06:38.303Z,24.70
2017-05-27T18:09:06.072Z,24.60
2017-05-27T18:11:33.820Z,24.50
2017-05-27T18:14:01.556Z,24.40
2017-05-27T18:16:29.304Z,24.40
2017-05-27T18:18:57.115Z,24.20
2017-05-27T18:21:24.863Z,24.10
2017-05-27T18:23:52.622Z,24.00
2017-05-27T18:26:20.376Z,23.90
2017-05-27T18:28:47.358Z,23.90
2017-05-27T18:31:15.119Z,23.80
2017-05-27T18:33:42.857Z,23.70
2017-05-27T18:36:10.625Z,23.60
2017-05-27T18:38:38.378Z,23.50
2017-05-27T18:41:06.145Z,23.40
2017-05-27T18:43:33.905Z,23.30
2017-05-27T18:46:01.640Z,23.30
2017-05-27T18:48:29.392Z,23.10
2017-05-27T18:50:57.153Z,23.00
2017-05-27T18:53:24.905Z,22.90
2017-05-27T18:55:52.640Z,22.90
2017-05-27T18:58:20.414Z,22.80
2017-05-27T19:00:48.156Z,22.70
2017-05-27T19:03:15.892Z,22.60
2017-05-27T19:05:43.681Z,22.50
2017-05-27T19:08:11.422Z,22.40
2017-05-27T19:10:40.204Z,22.30
2017-05-27T19:13:07.932Z,22.30
2017-05-27T19:15:35.700Z,22.20
2017-05-27T19:18:03.438Z,22.00
2017-05-27T19:20:31.180Z,22.00
2017-05-27T19:22:58.940Z,21.90
2017-05-27T19:25:26.672Z,21.80
2017-05-27T19:27:54.435Z,21.70
2017-05-27T19:30:22.202Z,21.60
2017-05-27T19:32:49.968Z,21.50
2017-05-27T19:35:17.706Z,21.50
2017-05-27T19:37:46.001Z,21.40
2017-05-27T19:40:13.752Z,21.40
2017-05-27T19:42:41.602Z,21.30
2017-05-27T19:45:09.372Z,21.20
2017-05-27T19:47:37.117Z,21.10
2017-05-27T19:50:04.889Z,20.90
2017-05-27T19:52:32.624Z,20.90
2017-05-27T19:55:00.385Z,20.80
2017-05-27T19:57:28.128Z,20.70
2017-05-27T19:59:55.891Z,20.70
2017-05-27T20:02:23.635Z,20.60
2017-05-27T20:04:51.396Z,20.50
2017-05-27T20:07:19.133Z,20.50
2017-05-27T20:09:46.897Z,20.40
2017-05-27T20:12:14.676Z,20.40
2017-05-27T20:14:42.428Z,20.40
2017-05-27T20:17:10.193Z,20.30
2017-05-27T20:19:37.922Z,20.30
2017-05-27T20:22:06.056Z,20.10
2017-05-27T20:24:33.785Z,20.10
2017-05-27T20:27:01.516Z,20.10
2017-05-27T20:29:29.288Z,20.00
2017-05-27T20:31:57.021Z,19.90
2017-05-27T20:34:24.789Z,19.80
2017-05-27T20:36:52.522Z,19.80
2017-05-27T20:39:20.266Z,19.70
2017-05-27T20:41:48.041Z,19.70
2017-05-27T20:44:15.792Z,19.60
2017-05-27T20:46:43.548Z,19.70
2017-05-27T20:49:11.304Z,19.70
2017-05-27T20:51:39.064Z,19.60
2017-05-27T20:54:06.789Z,19.60
2017-05-27T20:56:34.545Z,19.60
2017-05-27T20:59:02.288Z,19.50
2017-05-27T21:01:30.046Z,19.50
2017-05-27T21:03:57.773Z,19.50
2017-05-27T21:06:25.548Z,19.50
2017-05-27T21:08:53.282Z,19.40
2017-05-27T21:11:21.009Z,19.40
2017-05-27T21:13:48.788Z,19.30
2017-05-27T21:16:16.556Z,19.40
2017-05-27T21:18:44.374Z,19.30
2017-05-27T21:21:12.153Z,19.20
2017-05-27T21:23:39.918Z,19.20
2017-05-27T21:26:07.681Z,19.20
2017-05-27T21:28:35.416Z,19.20
2017-05-27T21:31:03.172Z,19.10
2017-05-27T21:33:30.904Z,19.10
2017-05-27T21:35:58.681Z,19.00
2017-05-27T21:38:26.440Z,19.00
2017-05-27T21:40:54.169Z,18.90
2017-05-27T21:43:21.948Z,18.90
2017-05-27T21:45:49.688Z,18.90
2017-05-27T21:48:17.460Z,18.90
2017-05-27T21:50:45.228Z,18.90
2017-05-27T21:53:12.986Z,18.90
2017-05-27T21:55:40.737Z,18.90
2017-05-27T21:58:08.473Z,18.90
2017-05-27T22:00:36.235Z,18.80
2017-05-27T22:03:03.997Z,18.80
2017-05-27T22:05:31.752Z,18.70
2017-05-27T22:07:59.485Z,18.70
2017-05-27T22:10:27.273Z,18.70
2017-05-27T22:12:55.034Z,18.70
2017-05-27T22:15:22.765Z,18.60
2017-05-27T22:17:50.516Z,18.60
2017-05-27T22:20:18.274Z,18.60
2017-05-27T22:22:46.071Z,18.60
2017-05-27T22:25:13.824Z,18.50
2017-05-27T22:27:41.565Z,18.60
2017-05-27T22:30:09.324Z,18.60
2017-05-27T22:32:37.056Z,18.50
2017-05-27T22:35:04.813Z,18.50
2017-05-27T22:37:32.544Z,18.40
2017-05-27T22:40:00.733Z,18.40
2017-05-27T22:42:28.456Z,18.40
2017-05-27T22:44:56.187Z,18.40
2017-05-27T22:47:23.940Z,18.30
2017-05-27T22:49:51.683Z,18.30
2017-05-27T22:52:19.448Z,18.30
2017-05-27T22:54:47.182Z,18.30
2017-05-27T22:57:15.185Z,18.30
2017-05-27T22:59:42.909Z,18.30
2017-05-27T23:02:10.635Z,18.20
2017-05-27T23:04:38.400Z,18.20
2017-05-27T23:07:06.128Z,18.10
2017-05-27T23:09:33.885Z,18.20
2017-05-27T23:12:01.612Z,18.10
2017-05-27T23:14:29.389Z,18.10
2017-05-27T23:16:57.116Z,18.00
2017-05-27T23:21:58.885Z,18.00
2017-05-27T23:24:26.616Z,17.90
2017-05-27T23:26:54.580Z,17.90
2017-05-27T23:29:22.308Z,17.90
2017-05-27T23:31:50.046Z,17.80
2017-05-27T23:34:17.796Z,17.80
2017-05-27T23:36:45.727Z,17.70
2017-05-27T23:39:13.857Z,17.70
2017-05-27T23:41:41.597Z,17.70
2017-05-27T23:44:09.321Z,17.70
2017-05-27T23:46:37.076Z,17.60
2017-05-27T23:49:04.805Z,17.60
2017-05-27T23:51:32.552Z,17.60
2017-05-27T23:54:00.272Z,17.60
2017-05-27T23:56:28.055Z,17.60
2017-05-27T23:58:55.781Z,17.60
